sensor_id;sensor_type;location;lat;lon;timestamp;temperature;humidity
51273;DHT22;37345;59.828;30.328;2022-11-15T06:10:32;1.00;99.90
51273;DHT22;37345;59.828;30.328;2022-11-15T06:13:03;1.10;99.90
51273;DHT22;37345;59.828;30.328;2022-11-15T06:15:29;1.10;99.90
51273;DHT22;37345;59.828;30.328;2022-11-15T06:17:58;1.10;99.90
51273;DHT22;37345;59.828;30.328;2022-11-15T06:20:25;1.00;99.90
51273;DHT22;37345;59.828;30.328;2022-11-15T06:22:55;0.90;99.90
51273;DHT22;37345;59.828;30.328;2022-11-15T06:25:21;1.00;99.90
51273;DHT22;37345;59.828;30.328;2022-11-15T06:27:51;1.00;99.90
51273;DHT22;37345;59.828;30.328;2022-11-15T06:30:17;0.90;99.90
51273;DHT22;37345;59.828;30.328;2022-11-15T06:32:43;0.90;99.90
51273;DHT22;37345;59.828;30.328;2022-11-15T06:35:09;1.00;99.90
51273;DHT22;37345;59.828;30.328;2022-11-15T06:37:34;0.90;99.90
51273;DHT22;37345;59.828;30.328;2022-11-15T06:40:00;1.00;99.90
51273;DHT22;37345;59.828;30.328;2022-11-15T06:42:26;1.00;99.90
51273;DHT22;37345;59.828;30.328;2022-11-15T06:44:52;1.10;99.90
51273;DHT22;37345;59.828;30.328;2022-11-15T06:47:17;1.00;99.90
51273;DHT22;37345;59.828;30.328;2022-11-15T06:49:43;1.00;99.90
51273;DHT22;37345;59.828;30.328;2022-11-15T06:52:09;1.00;99.90
51273;DHT22;37345;59.828;30.328;2022-11-15T06:54:34;1.00;99.90
51273;DHT22;37345;59.828;30.328;2022-11-15T06:57:04;1.00;99.90
51273;DHT22;37345;59.828;30.328;2022-11-15T06:59:30;1.00;99.90
51273;DHT22;37345;59.828;30.328;2022-11-15T07:01:56;0.90;99.90
51273;DHT22;37345;59.828;30.328;2022-11-15T07:04:22;0.90;99.90
51273;DHT22;37345;59.828;30.328;2022-11-15T07:06:47;1.00;99.90
51273;DHT22;37345;59.828;30.328;2022-11-15T07:09:14;0.90;99.90
51273;DHT22;37345;59.828;30.328;2022-11-15T07:11:40;1.00;99.90
51273;DHT22;37345;59.828;30.328;2022-11-15T07:14:05;1.00;99.90
51273;DHT22;37345;59.828;30.328;2022-11-15T07:16:31;1.00;99.90
51273;DHT22;37345;59.828;30.328;2022-11-15T07:18:57;1.00;99.90
51273;DHT22;37345;59.828;30.328;2022-11-15T07:21:23;1.00;99.90
51273;DHT22;37345;59.828;30.328;2022-11-15T07:23:48;1.00;99.90
51273;DHT22;37345;59.828;30.328;2022-11-15T07:26:14;1.00;99.90
51273;DHT22;37345;59.828;30.328;2022-11-15T07:28:40;1.00;99.90
51273;DHT22;37345;59.828;30.328;2022-11-15T07:31:07;1.00;99.90
51273;DHT22;37345;59.828;30.328;2022-11-15T07:33:34;1.10;99.90
51273;DHT22;37345;59.828;30.328;2022-11-15T07:36:01;1.10;99.90
51273;DHT22;37345;59.828;30.328;2022-11-15T07:38:28;1.00;99.90
51273;DHT22;37345;59.828;30.328;2022-11-15T07:40:59;1.00;99.90
51273;DHT22;37345;59.828;30.328;2022-11-15T07:43:25;1.00;99.90
51273;DHT22;37345;59.828;30.328;2022-11-15T07:45:53;1.10;99.90
51273;DHT22;37345;59.828;30.328;2022-11-15T07:48:19;1.10;99.90
51273;DHT22;37345;59.828;30.328;2022-11-15T07:50:45;1.10;99.90
51273;DHT22;37345;59.828;30.328;2022-11-15T07:53:11;1.10;99.90
51273;DHT22;37345;59.828;30.328;2022-11-15T07:55:39;1.00;99.90
51273;DHT22;37345;59.828;30.328;2022-11-15T07:58:07;1.10;99.90
51273;DHT22;37345;59.828;30.328;2022-11-15T08:00:34;1.00;99.90
51273;DHT22;37345;59.828;30.328;2022-11-15T08:03:07;1.10;99.90
51273;DHT22;37345;59.828;30.328;2022-11-15T08:05:33;1.10;99.90
51273;DHT22;37345;59.828;30.328;2022-11-15T08:07:59;1.00;99.90
51273;DHT22;37345;59.828;30.328;2022-11-15T08:10:27;1.10;99.90
51273;DHT22;37345;59.828;30.328;2022-11-15T08:13:00;1.10;99.90
51273;DHT22;37345;59.828;30.328;2022-11-15T08:15:27;1.00;99.90
51273;DHT22;37345;59.828;30.328;2022-11-15T08:17:57;1.00;99.90
51273;DHT22;37345;59.828;30.328;2022-11-15T08:20:24;1.00;99.90
51273;DHT22;37345;59.828;30.328;2022-11-15T08:22:51;1.00;99.90
51273;DHT22;37345;59.828;30.328;2022-11-15T08:25:16;1.10;99.90
51273;DHT22;37345;59.828;30.328;2022-11-15T08:27:42;1.10;99.90
51273;DHT22;37345;59.828;30.328;2022-11-15T08:30:08;1.10;99.90
51273;DHT22;37345;59.828;30.328;2022-11-15T08:32:34;1.10;99.90
51273;DHT22;37345;59.828;30.328;2022-11-15T08:35:00;1.10;99.90
51273;DHT22;37345;59.828;30.328;2022-11-15T08:37:26;1.10;99.90
51273;DHT22;37345;59.828;30.328;2022-11-15T08:39:52;1.10;99.90
51273;DHT22;37345;59.828;30.328;2022-11-15T08:42:17;1.20;99.90
51273;DHT22;37345;59.828;30.328;2022-11-15T08:44:43;1.20;99.90
51273;DHT22;37345;59.828;30.328;2022-11-15T08:47:11;1.20;99.90
51273;DHT22;37345;59.828;30.328;2022-11-15T08:49:39;1.20;99.90
51273;DHT22;37345;59.828;30.328;2022-11-15T08:52:04;1.20;99.90
51273;DHT22;37345;59.828;30.328;2022-11-15T08:54:30;1.20;99.90
51273;DHT22;37345;59.828;30.328;2022-11-15T08:56:57;1.20;99.90
51273;DHT22;37345;59.828;30.328;2022-11-15T08:59:23;1.20;99.90
51273;DHT22;37345;59.828;30.328;2022-11-15T09:01:48;1.10;99.90
51273;DHT22;37345;59.828;30.328;2022-11-15T09:04:14;1.10;99.90
51273;DHT22;37345;59.828;30.328;2022-11-15T09:06:40;1.10;99.90
51273;DHT22;37345;59.828;30.328;2022-11-15T09:09:06;1.10;99.90
51273;DHT22;37345;59.828;30.328;2022-11-15T09:11:31;1.10;99.90
51273;DHT22;37345;59.828;30.328;2022-11-15T09:13:57;1.10;99.90
51273;DHT22;37345;59.828;30.328;2022-11-15T09:16:23;1.10;99.90
51273;DHT22;37345;59.828;30.328;2022-11-15T09:18:49;1.10;99.90
51273;DHT22;37345;59.828;30.328;2022-11-15T09:21:15;1.00;99.90
51273;DHT22;37345;59.828;30.328;2022-11-15T09:23:41;1.10;99.90
51273;DHT22;37345;59.828;30.328;2022-11-15T09:26:07;1.10;99.90
51273;DHT22;37345;59.828;30.328;2022-11-15T09:28:33;1.10;99.90
51273;DHT22;37345;59.828;30.328;2022-11-15T09:31:01;1.10;99.90
51273;DHT22;37345;59.828;30.328;2022-11-15T09:33:27;1.10;99.90
51273;DHT22;37345;59.828;30.328;2022-11-15T09:35:53;1.20;99.90
51273;DHT22;37345;59.828;30.328;2022-11-15T09:38:19;1.10;99.90
51273;DHT22;37345;59.828;30.328;2022-11-15T09:40:50;1.20;99.90
51273;DHT22;37345;59.828;30.328;2022-11-15T09:43:32;1.20;99.90
51273;DHT22;37345;59.828;30.328;2022-11-15T09:48:56;1.30;99.90
51273;DHT22;37345;59.828;30.328;2022-11-15T09:51:27;1.20;99.90
51273;DHT22;37345;59.828;30.328;2022-11-15T09:56:33;1.30;99.90
51273;DHT22;37345;59.828;30.328;2022-11-15T10:04:58;1.20;99.90
51273;DHT22;37345;59.828;30.328;2022-11-15T10:12:44;1.30;99.90
51273;DHT22;37345;59.828;30.328;2022-11-15T10:15:16;1.40;99.90
51273;DHT22;37345;59.828;30.328;2022-11-15T10:18:08;1.30;99.90
51273;DHT22;37345;59.828;30.328;2022-11-15T10:20:54;1.30;99.90
51273;DHT22;37345;59.828;30.328;2022-11-15T10:23:22;1.30;99.90
51273;DHT22;37345;59.828;30.328;2022-11-15T10:25:59;1.40;99.90
51273;DHT22;37345;59.828;30.328;2022-11-15T10:28:29;1.40;99.90
51273;DHT22;37345;59.828;30.328;2022-11-15T10:31:00;1.30;99.90
51273;DHT22;37345;59.828;30.328;2022-11-15T10:33:38;1.40;99.90
51273;DHT22;37345;59.828;30.328;2022-11-15T10:41:18;1.40;99.90
51273;DHT22;37345;59.828;30.328;2022-11-15T10:43:45;1.40;99.90
51273;DHT22;37345;59.828;30.328;2022-11-15T10:46:23;1.50;99.90
51273;DHT22;37345;59.828;30.328;2022-11-15T10:48:50;1.30;99.90
51273;DHT22;37345;59.828;30.328;2022-11-15T10:51:27;1.40;99.90
51273;DHT22;37345;59.828;30.328;2022-11-15T10:53:59;1.40;99.90
51273;DHT22;37345;59.828;30.328;2022-11-15T10:56:26;1.30;99.90
51273;DHT22;37345;59.828;30.328;2022-11-15T10:58:55;1.30;99.90
51273;DHT22;37345;59.828;30.328;2022-11-15T11:01:26;1.40;99.90
51273;DHT22;37345;59.828;30.328;2022-11-15T11:04:07;1.30;99.90
51273;DHT22;37345;59.828;30.328;2022-11-15T11:09:23;1.30;99.90
51273;DHT22;37345;59.828;30.328;2022-11-15T11:11:52;1.20;99.90
51273;DHT22;37345;59.828;30.328;2022-11-15T11:14:25;1.30;99.90
51273;DHT22;37345;59.828;30.328;2022-11-15T11:16:54;1.20;99.90
51273;DHT22;37345;59.828;30.328;2022-11-15T11:23:24;1.30;99.90
51273;DHT22;37345;59.828;30.328;2022-11-15T11:34:29;1.30;99.90
51273;DHT22;37345;59.828;30.328;2022-11-15T11:40:03;1.20;99.90
51273;DHT22;37345;59.828;30.328;2022-11-15T11:51:14;1.20;99.90
51273;DHT22;37345;59.828;30.328;2022-11-15T11:53:51;1.20;99.90
51273;DHT22;37345;59.828;30.328;2022-11-15T11:56:32;1.20;99.90
51273;DHT22;37345;59.828;30.328;2022-11-15T11:59:50;1.20;99.90
51273;DHT22;37345;59.828;30.328;2022-11-15T12:01:57;1.30;99.90
51273;DHT22;37345;59.828;30.328;2022-11-15T12:04:35;1.20;99.90
51273;DHT22;37345;59.828;30.328;2022-11-15T12:07:09;1.20;99.90
51273;DHT22;37345;59.828;30.328;2022-11-15T12:15:39;1.20;99.90
51273;DHT22;37345;59.828;30.328;2022-11-15T12:25:57;1.00;99.90
51273;DHT22;37345;59.828;30.328;2022-11-15T12:28:35;1.20;99.90
51273;DHT22;37345;59.828;30.328;2022-11-15T12:33:37;1.10;99.90
51273;DHT22;37345;59.828;30.328;2022-11-15T12:36:10;1.30;99.90
51273;DHT22;37345;59.828;30.328;2022-11-15T12:39:02;1.20;99.90
51273;DHT22;37345;59.828;30.328;2022-11-15T12:41:33;1.20;99.90
51273;DHT22;37345;59.828;30.328;2022-11-15T12:44:00;1.20;99.90
51273;DHT22;37345;59.828;30.328;2022-11-15T12:49:42;1.30;99.90
51273;DHT22;37345;59.828;30.328;2022-11-15T12:52:08;1.30;99.90
51273;DHT22;37345;59.828;30.328;2022-11-15T13:02:42;1.20;99.90
51273;DHT22;37345;59.828;30.328;2022-11-15T13:23:07;1.30;99.90
51273;DHT22;37345;59.828;30.328;2022-11-15T13:25:50;1.30;99.90
51273;DHT22;37345;59.828;30.328;2022-11-15T13:28:20;1.40;99.90
51273;DHT22;37345;59.828;30.328;2022-11-15T13:33:16;1.30;99.90
51273;DHT22;37345;59.828;30.328;2022-11-15T13:35:46;1.30;99.90
51273;DHT22;37345;59.828;30.328;2022-11-15T13:40:46;1.30;99.90
51273;DHT22;37345;59.828;30.328;2022-11-15T13:43:26;1.30;99.90
51273;DHT22;37345;59.828;30.328;2022-11-15T13:46:17;1.30;99.90
51273;DHT22;37345;59.828;30.328;2022-11-15T13:48:45;1.30;99.90
51273;DHT22;37345;59.828;30.328;2022-11-15T13:51:19;1.30;99.90
51273;DHT22;37345;59.828;30.328;2022-11-15T13:53:54;1.30;99.90
51273;DHT22;37345;59.828;30.328;2022-11-15T13:56:20;1.30;99.90
51273;DHT22;37345;59.828;30.328;2022-11-15T13:58:47;1.30;99.90
51273;DHT22;37345;59.828;30.328;2022-11-15T14:01:18;1.30;99.90
51273;DHT22;37345;59.828;30.328;2022-11-15T14:03:56;1.30;99.90
51273;DHT22;37345;59.828;30.328;2022-11-15T14:06:24;1.30;99.90
51273;DHT22;37345;59.828;30.328;2022-11-15T14:11:35;1.30;99.90
51273;DHT22;37345;59.828;30.328;2022-11-15T14:14:11;1.30;99.90
51273;DHT22;37345;59.828;30.328;2022-11-15T14:16:43;1.30;99.90
51273;DHT22;37345;59.828;30.328;2022-11-15T14:22:08;1.30;99.90
51273;DHT22;37345;59.828;30.328;2022-11-15T14:24:35;1.30;99.90
51273;DHT22;37345;59.828;30.328;2022-11-15T14:29:48;1.40;99.90
51273;DHT22;37345;59.828;30.328;2022-11-15T14:32:27;1.40;99.90
51273;DHT22;37345;59.828;30.328;2022-11-15T14:37:29;1.40;99.90
51273;DHT22;37345;59.828;30.328;2022-11-15T14:39:59;1.40;99.90
51273;DHT22;37345;59.828;30.328;2022-11-15T14:42:25;1.40;99.90
51273;DHT22;37345;59.828;30.328;2022-11-15T14:44:50;1.40;99.90
51273;DHT22;37345;59.828;30.328;2022-11-15T14:47:17;1.40;99.90
51273;DHT22;37345;59.828;30.328;2022-11-15T14:49:43;1.40;99.90
51273;DHT22;37345;59.828;30.328;2022-11-15T14:52:29;1.40;99.90
51273;DHT22;37345;59.828;30.328;2022-11-15T14:54:56;1.40;99.90
51273;DHT22;37345;59.828;30.328;2022-11-15T14:57:23;1.40;99.90
51273;DHT22;37345;59.828;30.328;2022-11-15T14:59:49;1.40;99.90
51273;DHT22;37345;59.828;30.328;2022-11-15T15:02:20;1.40;99.90
51273;DHT22;37345;59.828;30.328;2022-11-15T15:04:46;1.30;99.90
51273;DHT22;37345;59.828;30.328;2022-11-15T15:07:12;1.40;99.90
51273;DHT22;37345;59.828;30.328;2022-11-15T15:09:38;1.40;99.90
51273;DHT22;37345;59.828;30.328;2022-11-15T15:12:11;1.40;99.90
51273;DHT22;37345;59.828;30.328;2022-11-15T15:14:37;1.40;99.90
51273;DHT22;37345;59.828;30.328;2022-11-15T15:17:03;1.50;99.90
51273;DHT22;37345;59.828;30.328;2022-11-15T15:19:30;1.40;99.90
51273;DHT22;37345;59.828;30.328;2022-11-15T15:21:55;1.50;99.90
51273;DHT22;37345;59.828;30.328;2022-11-15T15:24:21;1.40;99.90
51273;DHT22;37345;59.828;30.328;2022-11-15T15:26:47;1.40;99.90
51273;DHT22;37345;59.828;30.328;2022-11-15T15:29:13;1.40;99.90
51273;DHT22;37345;59.828;30.328;2022-11-15T15:31:39;1.50;99.90
51273;DHT22;37345;59.828;30.328;2022-11-15T15:34:04;1.50;99.90
51273;DHT22;37345;59.828;30.328;2022-11-15T15:36:30;1.40;99.90
51273;DHT22;37345;59.828;30.328;2022-11-15T15:38:56;1.50;99.90
51273;DHT22;37345;59.828;30.328;2022-11-15T15:41:24;1.60;99.90
51273;DHT22;37345;59.828;30.328;2022-11-15T15:43:50;1.50;99.90
51273;DHT22;37345;59.828;30.328;2022-11-15T15:46:17;1.50;99.90
51273;DHT22;37345;59.828;30.328;2022-11-15T15:48:44;1.40;99.90
51273;DHT22;37345;59.828;30.328;2022-11-15T15:51:10;1.40;99.90
51273;DHT22;37345;59.828;30.328;2022-11-15T15:53:36;1.30;99.90
51273;DHT22;37345;59.828;30.328;2022-11-15T15:56:02;1.40;99.90
51273;DHT22;37345;59.828;30.328;2022-11-15T15:58:28;1.40;99.90
51273;DHT22;37345;59.828;30.328;2022-11-15T16:00:53;1.40;99.90
51273;DHT22;37345;59.828;30.328;2022-11-15T16:03:19;1.40;99.90
51273;DHT22;37345;59.828;30.328;2022-11-15T16:05:46;1.40;99.90
51273;DHT22;37345;59.828;30.328;2022-11-15T16:08:24;1.30;99.90
51273;DHT22;37345;59.828;30.328;2022-11-15T16:10:52;1.30;99.90
51273;DHT22;37345;59.828;30.328;2022-11-15T16:13:18;1.40;99.90
51273;DHT22;37345;59.828;30.328;2022-11-15T16:15:45;1.40;99.90
51273;DHT22;37345;59.828;30.328;2022-11-15T16:18:16;1.30;99.90
51273;DHT22;37345;59.828;30.328;2022-11-15T16:20:46;1.30;99.90
51273;DHT22;37345;59.828;30.328;2022-11-15T16:23:16;1.30;99.90
51273;DHT22;37345;59.828;30.328;2022-11-15T16:25:49;1.20;99.90
51273;DHT22;37345;59.828;30.328;2022-11-15T16:28:22;1.30;99.90
51273;DHT22;37345;59.828;30.328;2022-11-15T16:30:49;1.30;99.90
51273;DHT22;37345;59.828;30.328;2022-11-15T16:33:24;1.30;99.90
51273;DHT22;37345;59.828;30.328;2022-11-15T16:35:49;1.30;99.90
51273;DHT22;37345;59.828;30.328;2022-11-15T16:38:18;1.30;99.90
51273;DHT22;37345;59.828;30.328;2022-11-15T16:40:44;1.10;99.90
51273;DHT22;37345;59.828;30.328;2022-11-15T16:43:10;1.30;99.90
51273;DHT22;37345;59.828;30.328;2022-11-15T16:45:36;1.40;99.90
51273;DHT22;37345;59.828;30.328;2022-11-15T16:48:02;1.40;99.90
51273;DHT22;37345;59.828;30.328;2022-11-15T16:50:30;1.40;99.90
51273;DHT22;37345;59.828;30.328;2022-11-15T16:52:59;1.40;99.90
51273;DHT22;37345;59.828;30.328;2022-11-15T16:55:27;1.40;99.90
51273;DHT22;37345;59.828;30.328;2022-11-15T16:58:02;1.40;99.90
51273;DHT22;37345;59.828;30.328;2022-11-15T17:00:27;1.70;99.90
51273;DHT22;37345;59.828;30.328;2022-11-15T17:02:53;1.50;99.90
51273;DHT22;37345;59.828;30.328;2022-11-15T17:05:22;1.50;99.90
51273;DHT22;37345;59.828;30.328;2022-11-15T17:07:50;1.50;99.90
51273;DHT22;37345;59.828;30.328;2022-11-15T17:10:22;1.60;99.90
51273;DHT22;37345;59.828;30.328;2022-11-15T17:12:49;1.60;99.90
51273;DHT22;37345;59.828;30.328;2022-11-15T17:15:16;1.60;99.90
51273;DHT22;37345;59.828;30.328;2022-11-15T17:17:42;1.60;99.90
51273;DHT22;37345;59.828;30.328;2022-11-15T17:20:14;1.60;99.90
51273;DHT22;37345;59.828;30.328;2022-11-15T17:22:40;1.60;99.90
51273;DHT22;37345;59.828;30.328;2022-11-15T17:25:06;1.60;99.90
51273;DHT22;37345;59.828;30.328;2022-11-15T17:27:32;1.50;99.90
51273;DHT22;37345;59.828;30.328;2022-11-15T17:29:58;1.60;99.90
51273;DHT22;37345;59.828;30.328;2022-11-15T17:32:29;1.60;99.90
51273;DHT22;37345;59.828;30.328;2022-11-15T17:34:55;1.60;99.90
51273;DHT22;37345;59.828;30.328;2022-11-15T17:37:23;1.60;99.90
51273;DHT22;37345;59.828;30.328;2022-11-15T17:39:49;1.60;99.90
51273;DHT22;37345;59.828;30.328;2022-11-15T17:42:15;1.70;99.90
51273;DHT22;37345;59.828;30.328;2022-11-15T17:44:43;1.70;99.90
51273;DHT22;37345;59.828;30.328;2022-11-15T17:47:09;1.70;99.90
51273;DHT22;37345;59.828;30.328;2022-11-15T17:49:37;1.70;99.90
51273;DHT22;37345;59.828;30.328;2022-11-15T17:52:05;1.80;99.90
51273;DHT22;37345;59.828;30.328;2022-11-15T17:54:33;1.80;99.90
51273;DHT22;37345;59.828;30.328;2022-11-15T17:56:58;1.70;99.90
51273;DHT22;37345;59.828;30.328;2022-11-15T17:59:24;1.80;99.90
51273;DHT22;37345;59.828;30.328;2022-11-15T18:01:52;1.80;99.90
51273;DHT22;37345;59.828;30.328;2022-11-15T18:04:21;1.90;99.90
51273;DHT22;37345;59.828;30.328;2022-11-15T18:06:53;1.80;99.90
51273;DHT22;37345;59.828;30.328;2022-11-15T18:09:19;1.70;99.90
51273;DHT22;37345;59.828;30.328;2022-11-15T18:11:46;1.60;99.90
51273;DHT22;37345;59.828;30.328;2022-11-15T18:29:29;1.60;99.90
51273;DHT22;37345;59.828;30.328;2022-11-15T18:31:56;1.80;99.90
51273;DHT22;37345;59.828;30.328;2022-11-15T18:34:27;1.90;99.90
51273;DHT22;37345;59.828;30.328;2022-11-15T18:37:00;1.90;99.90
51273;DHT22;37345;59.828;30.328;2022-11-15T18:39:33;1.80;99.90
51273;DHT22;37345;59.828;30.328;2022-11-15T18:42:08;1.90;99.90
51273;DHT22;37345;59.828;30.328;2022-11-15T18:44:36;1.80;99.90
51273;DHT22;37345;59.828;30.328;2022-11-15T19:01:54;1.50;99.90
51273;DHT22;37345;59.828;30.328;2022-11-15T20:08:19;1.70;99.90
51273;DHT22;37345;59.828;30.328;2022-11-15T20:18:04;1.80;99.90
51273;DHT22;37345;59.828;30.328;2022-11-15T20:20:33;2.10;99.90
51273;DHT22;37345;59.828;30.328;2022-11-15T20:23:00;2.00;99.90
51273;DHT22;37345;59.828;30.328;2022-11-15T20:25:26;2.00;99.90
51273;DHT22;37345;59.828;30.328;2022-11-15T20:27:52;1.90;99.90
51273;DHT22;37345;59.828;30.328;2022-11-15T20:30:17;2.20;99.90
51273;DHT22;37345;59.828;30.328;2022-11-15T20:32:44;2.20;99.90
51273;DHT22;37345;59.828;30.328;2022-11-15T20:35:09;2.20;99.90
51273;DHT22;37345;59.828;30.328;2022-11-15T20:37:35;2.20;99.90
51273;DHT22;37345;59.828;30.328;2022-11-15T20:40:01;2.20;99.90
51273;DHT22;37345;59.828;30.328;2022-11-15T20:42:27;2.20;99.90
51273;DHT22;37345;59.828;30.328;2022-11-15T20:44:53;2.30;99.90
51273;DHT22;37345;59.828;30.328;2022-11-15T20:47:21;2.20;99.90
51273;DHT22;37345;59.828;30.328;2022-11-15T20:49:50;2.10;99.90
51273;DHT22;37345;59.828;30.328;2022-11-15T20:52:23;2.20;99.90
51273;DHT22;37345;59.828;30.328;2022-11-15T20:54:51;2.10;99.90
51273;DHT22;37345;59.828;30.328;2022-11-15T20:57:17;2.10;99.90
51273;DHT22;37345;59.828;30.328;2022-11-15T20:59:43;2.10;99.90
51273;DHT22;37345;59.828;30.328;2022-11-15T21:02:13;2.20;99.90
51273;DHT22;37345;59.828;30.328;2022-11-15T21:04:39;2.30;99.90
51273;DHT22;37345;59.828;30.328;2022-11-15T21:07:22;2.10;99.90
51273;DHT22;37345;59.828;30.328;2022-11-15T21:09:48;2.10;99.90
51273;DHT22;37345;59.828;30.328;2022-11-15T21:12:32;2.10;99.90
51273;DHT22;37345;59.828;30.328;2022-11-15T21:14:58;2.20;99.90
51273;DHT22;37345;59.828;30.328;2022-11-15T21:17:24;2.30;99.90
51273;DHT22;37345;59.828;30.328;2022-11-15T21:19:50;2.20;99.90
51273;DHT22;37345;59.828;30.328;2022-11-15T21:22:16;2.10;99.90
51273;DHT22;37345;59.828;30.328;2022-11-15T21:24:42;2.20;99.90
51273;DHT22;37345;59.828;30.328;2022-11-15T21:27:08;2.20;99.90
51273;DHT22;37345;59.828;30.328;2022-11-15T21:29:34;2.20;99.90
51273;DHT22;37345;59.828;30.328;2022-11-15T21:32:10;2.40;99.90
51273;DHT22;37345;59.828;30.328;2022-11-15T21:34:36;2.40;99.90
51273;DHT22;37345;59.828;30.328;2022-11-15T21:37:03;2.40;99.90
51273;DHT22;37345;59.828;30.328;2022-11-15T21:39:29;2.50;99.90
51273;DHT22;37345;59.828;30.328;2022-11-15T21:41:55;2.50;99.90
51273;DHT22;37345;59.828;30.328;2022-11-15T21:44:21;2.50;99.90
51273;DHT22;37345;59.828;30.328;2022-11-15T22:21:23;2.00;99.90
51273;DHT22;37345;59.828;30.328;2022-11-15T22:23:49;2.20;99.90
51273;DHT22;37345;59.828;30.328;2022-11-15T22:26:17;2.10;99.90
51273;DHT22;37345;59.828;30.328;2022-11-15T22:28:43;2.10;99.90
51273;DHT22;37345;59.828;30.328;2022-11-15T22:31:09;2.00;99.90
51273;DHT22;37345;59.828;30.328;2022-11-15T22:33:36;2.10;99.90
51273;DHT22;37345;59.828;30.328;2022-11-15T22:36:03;2.10;99.90
51273;DHT22;37345;59.828;30.328;2022-11-15T22:38:29;2.10;99.90
51273;DHT22;37345;59.828;30.328;2022-11-15T22:40:56;2.00;99.90
51273;DHT22;37345;59.828;30.328;2022-11-15T22:43:23;1.90;99.90
51273;DHT22;37345;59.828;30.328;2022-11-15T22:45:59;1.90;99.90
51273;DHT22;37345;59.828;30.328;2022-11-15T22:48:30;2.00;99.90
51273;DHT22;37345;59.828;30.328;2022-11-15T22:50:57;2.10;99.90
51273;DHT22;37345;59.828;30.328;2022-11-15T22:53:26;2.00;99.90
51273;DHT22;37345;59.828;30.328;2022-11-15T22:55:56;2.20;99.90
51273;DHT22;37345;59.828;30.328;2022-11-15T22:58:24;2.20;99.90
51273;DHT22;37345;59.828;30.328;2022-11-15T23:00:54;2.20;99.90
51273;DHT22;37345;59.828;30.328;2022-11-15T23:03:21;2.20;99.90
51273;DHT22;37345;59.828;30.328;2022-11-15T23:05:47;2.10;99.90
51273;DHT22;37345;59.828;30.328;2022-11-15T23:08:14;2.10;99.90
51273;DHT22;37345;59.828;30.328;2022-11-15T23:10:40;2.00;99.90
51273;DHT22;37345;59.828;30.328;2022-11-15T23:13:26;2.10;99.90
51273;DHT22;37345;59.828;30.328;2022-11-15T23:16:01;2.00;99.90
51273;DHT22;37345;59.828;30.328;2022-11-15T23:18:45;1.90;99.90
51273;DHT22;37345;59.828;30.328;2022-11-15T23:21:20;1.80;99.90
51273;DHT22;37345;59.828;30.328;2022-11-15T23:24:05;1.70;99.90
51273;DHT22;37345;59.828;30.328;2022-11-15T23:26:31;1.80;99.90
51273;DHT22;37345;59.828;30.328;2022-11-15T23:28:57;1.90;99.90
51273;DHT22;37345;59.828;30.328;2022-11-15T23:31:23;2.00;99.90
51273;DHT22;37345;59.828;30.328;2022-11-15T23:34:07;1.80;99.90
51273;DHT22;37345;59.828;30.328;2022-11-15T23:36:33;1.80;99.90
51273;DHT22;37345;59.828;30.328;2022-11-15T23:39:00;1.80;99.90
51273;DHT22;37345;59.828;30.328;2022-11-15T23:41:26;1.80;99.90
51273;DHT22;37345;59.828;30.328;2022-11-15T23:43:52;1.80;99.90
51273;DHT22;37345;59.828;30.328;2022-11-15T23:46:18;1.80;99.90
51273;DHT22;37345;59.828;30.328;2022-11-15T23:48:43;1.80;99.90
51273;DHT22;37345;59.828;30.328;2022-11-15T23:51:09;1.70;99.90
51273;DHT22;37345;59.828;30.328;2022-11-15T23:53:35;1.60;99.90
51273;DHT22;37345;59.828;30.328;2022-11-15T23:56:05;1.60;99.90
51273;DHT22;37345;59.828;30.328;2022-11-15T23:58:32;1.50;99.90
